Flight Track Log - Related Links

Times and Time Zones

All times are in EDT time to prevent confusion due to time zone crossing. See the TAM3701 flight status page for this flight to view local times or setup timezone preferences in your user account.

Time Position Orientation Groundspeed Altitude Reporting Facility
EDT Latitude Longitude Course Direction KTS MPH feet Rate Location/Type
Mon 08:08:18 AM -15.8690 -47.9190 317° Northwest 11 13  Level FlightAware ADS-B
Mon 08:09:47 AM -15.8680 -47.9190 360° North 28 32 683 Level FlightAware ADS-B
Mon 08:10:03 AM -15.8670 -47.9180 44° Northeast 18 21 931 Level FlightAware ADS-B
Mon 08:10:42 AM -15.8650 -47.9190 334° Northwest 28 32 996 Level FlightAware ADS-B
Mon 08:10:58 AM -15.8650 -47.9200 270° West 17 20 1,200 Level FlightAware ADS-B
Mon 08:11:40 AM -15.8650 -47.9230 270° West 21 24 1,310 Level FlightAware ADS-B
Mon 08:12:11 AM -15.8660 -47.9270 255° West 19 22 1,727 Level FlightAware ADS-B
Mon 08:12:54 AM -15.8640 -47.9260 26° Northeast 18 21 2,257 Level FlightAware ADS-B
Mon 08:13:07 AM -15.8630 -47.9240 63° Northeast 63 72 3,931 Level FlightAware ADS-B
Mon 08:13:52 AM -15.8610 -47.8930 86° East 168 193 3,800 3,863 Climbing FlightAware ADS-B
Mon 08:14:20 AM -15.8600 -47.8710 87° East 170 196 4,700 1,821 Climbing FlightAware ADS-B
Mon 08:14:48 AM -15.8590 -47.8480 87° East 177 204 5,500 1,560 Climbing FlightAware ADS-B
Mon 08:15:10 AM -15.8570 -47.8280 84° East 186 214 6,000 1,625 Climbing FlightAware ADS-B
Mon 08:15:36 AM -15.8560 -47.8060 87° East 187 215 6,800 1,500 Climbing FlightAware ADS-B
Mon 08:16:10 AM -15.8740 -47.7840 130° Southeast 197 227 7,500 968 Climbing FlightAware ADS-B
Mon 08:16:38 AM -15.9000 -47.7880 188° South 222 255 7,800 857 Climbing FlightAware ADS-B
Mon 08:17:06 AM -15.9320 -47.7930 189° South 265 305 8,300 1,448 Climbing FlightAware ADS-B
Mon 08:17:36 AM -15.9720 -47.7990 188° South 288 331 9,200 2,029 Climbing FlightAware ADS-B
Mon 08:18:14 AM -16.0220 -47.8070 189° South 304 350 10,600 1,683 Climbing FlightAware ADS-B
Mon 08:18:58 AM -16.0880 -47.8180 189° South 346 398 11,500 1,744 Climbing FlightAware ADS-B
Mon 08:19:40 AM -16.1560 -47.8290 189° South 355 409 13,100 2,071 Climbing FlightAware ADS-B
Mon 08:20:22 AM -16.2270 -47.8410 189° South 366 421 14,400 2,096 Climbing FlightAware ADS-B
Mon 08:21:03 AM -16.2940 -47.8520 189° South 369 425 16,000 2,074 Climbing FlightAware ADS-B
Mon 08:21:43 AM -16.3640 -47.8630 189° South 380 437 17,200 1,725 Climbing FlightAware ADS-B
Mon 08:22:23 AM -16.4340 -47.8750 189° South 392 451 18,300 1,793 Climbing FlightAware ADS-B
Mon 08:23:10 AM -16.5160 -47.8880 189° South 397 457 19,800 1,886 Climbing FlightAware ADS-B
Mon 08:23:33 AM -16.5450 -47.8930 189° South 389 448 20,500 1,029 Climbing FlightAware ADS-B
Mon 08:24:20 AM -16.6080 -47.9020 188° South 389 448 21,000 357 Climbing FlightAware ADS-B
Mon 08:24:57 AM -16.6640 -47.9100 188° South 389 448 21,000 1,636 Level FlightAware ADS-B
Mon 08:25:59 AM -16.8180 -47.9350 189° South 410 472 23,700 1,653 Climbing FlightAware ADS-B
Mon 08:26:35 AM -16.8760 -47.9420 187° South 410 472 23,700  Level FlightAware ADS-B
Mon 08:27:23 AM -16.9520 -47.9520 187° South 410 472 23,700  Level FlightAware ADS-B
Mon 08:28:00 AM -17.0120 -47.9600 187° South 410 472 23,700  Level FlightAware ADS-B
Mon 08:28:47 AM -17.0870 -47.9690 187° South 410 472 23,700 3,353 Level FlightAware ADS-B
Mon 08:29:08 AM -17.2160 -47.8700 144° Southeast 455 524 27,500 3,470 Climbing FlightAware ADS-B
Mon 08:30:10 AM -17.3480 -47.8520 173° South 462 532 28,500 744 Climbing FlightAware ADS-B
Mon 08:31:09 AM -17.4640 -47.8350 172° South 465 535 29,000 875 Climbing FlightAware ADS-B
Mon 08:31:46 AM -17.5570 -47.8220 172° South 473 544 29,900 975 Climbing FlightAware ADS-B
Mon 08:32:29 AM -17.6500 -47.8090 172° South 483 556 30,300 897 Climbing FlightAware ADS-B
Mon 08:33:13 AM -17.7470 -47.7950 172° South 480 552 31,200 1,071 Climbing FlightAware ADS-B
Mon 08:33:53 AM -17.8360 -47.7830 173° South 481 554 31,800 1,037 Climbing FlightAware ADS-B
Mon 08:34:34 AM -17.9280 -47.7690 172° South 479 551 32,600 1,103 Climbing FlightAware ADS-B
Mon 08:35:20 AM -18.0300 -47.7550 173° South 479 551 33,400 837 Climbing FlightAware ADS-B
Mon 08:36:00 AM -18.1170 -47.7420 172° South 482 555 33,800 878 Climbing FlightAware ADS-B
Mon 08:36:42 AM -18.2100 -47.7290 172° South 478 550 34,600 951 Climbing FlightAware ADS-B
Mon 08:37:22 AM -18.2990 -47.7160 172° South 479 551 35,100 651 Climbing FlightAware ADS-B
Mon 08:38:05 AM -18.3920 -47.7030 172° South 483 556 35,500 558 Climbing FlightAware ADS-B
Mon 08:38:48 AM -18.4890 -47.6900 173° South 487 560 35,900 361 Climbing FlightAware ADS-B
Mon 08:39:28 AM -18.5800 -47.6770 172° South 485 558 36,000 71 Climbing FlightAware ADS-B
Mon 08:40:12 AM -18.6760 -47.6630 172° South 482 555 36,000  Level FlightAware ADS-B
Mon 08:40:56 AM -18.7750 -47.6490 172° South 482 555 36,000  Level FlightAware ADS-B
Mon 08:41:36 AM -18.8630 -47.6360 172° South 484 557 36,000  Level FlightAware ADS-B
Mon 08:42:26 AM -18.9360 -47.6260 173° South 484 557 36,000  Level FlightAware ADS-B
Mon 08:43:08 AM -18.9840 -47.6210 174° South 478 550 36,000  Level FlightAware ADS-B
Mon 08:43:52 AM -19.1130 -47.6420 189° South 458 527 36,000  Level FlightAware ADS-B
Mon 08:44:52 AM -19.2830 -47.6730 190° South 461 531 36,000  Level FlightAware ADS-B
Mon 08:45:29 AM -19.3290 -47.6810 189° South 461 531 36,000 714 Level FlightAware ADS-B
Mon 08:46:16 AM -19.4590 -47.7050 190° South 450 518 37,000 989 Climbing FlightAware ADS-B
Mon 08:47:00 AM -19.5490 -47.7210 190° South 448 516 37,500 643 Climbing FlightAware ADS-B
Mon 08:47:40 AM -19.6300 -47.7360 190° South 446 513 37,900 357 Climbing FlightAware ADS-B
Mon 08:48:24 AM -19.7210 -47.7520 189° South 453 521 38,000 71 Climbing FlightAware ADS-B
Mon 08:49:04 AM -19.8050 -47.7680 190° South 459 528 38,000  Level FlightAware ADS-B
Mon 08:49:48 AM -19.8970 -47.7840 189° South 457 526 38,000  Level FlightAware ADS-B
Mon 08:50:31 AM -19.9880 -47.8010 190° South 458 527 38,000  Level FlightAware ADS-B
Mon 08:51:11 AM -20.0700 -47.8160 190° South 456 525 38,000  Level FlightAware ADS-B
Mon 08:51:49 AM -20.1510 -47.8310 190° South 458 527 38,000  Level FlightAware ADS-B
Mon 08:52:21 AM -20.2170 -47.8430 190° South 453 521 38,000  Level FlightAware ADS-B
Mon 08:53:05 AM -20.3090 -47.8600 190° South 451 519 38,000  Level FlightAware ADS-B
Mon 08:53:45 AM -20.3910 -47.8750 190° South 453 521 38,000  Level FlightAware ADS-B
Mon 08:54:27 AM -20.4780 -47.8910 190° South 454 522 38,000  Level FlightAware ADS-B
Mon 08:55:09 AM -20.5660 -47.9070 190° South 453 521 38,000  Level FlightAware ADS-B
Mon 08:55:51 AM -20.6520 -47.9230 190° South 452 520 38,000  Level FlightAware ADS-B
Mon 08:56:35 AM -20.7430 -47.9400 190° South 451 519 38,000  Level FlightAware ADS-B
Mon 08:57:15 AM -20.8250 -47.9550 190° South 454 522 38,000  Level FlightAware ADS-B
Mon 08:57:56 AM -20.9120 -47.9710 190° South 455 524 38,000  Level FlightAware ADS-B
Mon 08:58:41 AM -21.0040 -47.9880 190° South 450 518 38,000  Level FlightAware ADS-B
Mon 08:59:20 AM -21.0850 -48.0030 190° South 444 511 38,000  Level FlightAware ADS-B
Mon 09:00:19 AM -21.2050 -48.0020 180° South 468 539 38,000  Level FlightAware ADS-B
Mon 09:01:01 AM -21.2950 -47.9810 168° South 470 541 38,000  Level FlightAware ADS-B
Mon 09:01:41 AM -21.3820 -47.9620 169° South 469 540 38,000  Level FlightAware ADS-B
Mon 09:02:23 AM -21.4720 -47.9430 169° South 469 540 38,000  Level FlightAware ADS-B
Mon 09:03:07 AM -21.5670 -47.9220 168° South 469 540 38,000  Level FlightAware ADS-B
Mon 09:03:49 AM -21.6550 -47.9030 169° South 469 540 38,000  Level FlightAware ADS-B
Mon 09:04:31 AM -21.7460 -47.8830 168° South 469 540 38,000  Level FlightAware ADS-B
Mon 09:05:11 AM -21.8290 -47.8650 169° South 468 539 38,000 -975 Level FlightAware ADS-B
Mon 09:05:51 AM -21.9160 -47.8470 169° South 471 542 36,700 -2,163 Descending FlightAware ADS-B
Mon 09:06:37 AM -22.0130 -47.8250 168° South 473 544 34,900 -2,318 Descending FlightAware ADS-B
Mon 09:07:19 AM -22.1050 -47.8050 169° South 478 550 33,300 -2,357 Descending FlightAware ADS-B
Mon 09:08:01 AM -22.1960 -47.7850 168° South 478 550 31,600 -2,643 Descending FlightAware ADS-B
Mon 09:08:43 AM -22.2850 -47.7530 162° South 475 547 29,600 -2,500 Descending FlightAware ADS-B
Mon 09:09:25 AM -22.3710 -47.7210 161° South 459 528 28,100 -2,250 Descending FlightAware ADS-B
Mon 09:10:03 AM -22.4450 -47.6940 161° South 440 506 26,600 -2,222 Descending FlightAware ADS-B
Mon 09:10:46 AM -22.5270 -47.6640 161° South 425 489 25,100 -2,118 Descending FlightAware ADS-B
Mon 09:11:28 AM -22.6050 -47.6350 161° South 425 489 23,600 -3,146 Descending FlightAware ADS-B
Mon 09:12:08 AM -22.6820 -47.6070 161° South 436 502 20,800 -2,593 Descending FlightAware ADS-B
Mon 09:12:49 AM -22.7550 -47.5800 161° South 391 450 20,100 -628 Descending FlightAware ADS-B
Mon 09:13:34 AM -22.8250 -47.5410 153° Southeast 369 425 19,900 -1,333 Descending FlightAware ADS-B
Mon 09:14:19 AM -22.8850 -47.4860 140° Southeast 381 438 18,100 -2,188 Descending FlightAware ADS-B
Mon 09:14:59 AM -22.9370 -47.4370 139° Southeast 368 423 16,800 -1,852 Descending FlightAware ADS-B
Mon 09:15:40 AM -22.9900 -47.3880 140° Southeast 362 417 15,600 -1,835 Descending FlightAware ADS-B
Mon 09:16:24 AM -23.0480 -47.3340 139° Southeast 363 418 14,200 -1,595 Descending FlightAware ADS-B
Mon 09:16:59 AM -23.0900 -47.2950 139° Southeast 345 397 13,500 -1,050 Descending FlightAware ADS-B
Mon 09:17:44 AM -23.1440 -47.2440 139° Southeast 323 372 12,800 -1,277 Descending FlightAware ADS-B
Mon 09:18:33 AM -23.2010 -47.1910 139° Southeast 312 359 11,500 -1,146 Descending FlightAware ADS-B
Mon 09:19:13 AM -23.2450 -47.1510 140° Southeast 311 358 11,100 -643 Descending FlightAware ADS-B
Mon 09:19:57 AM -23.2920 -47.1070 139° Southeast 293 337 10,600 -846 Descending FlightAware ADS-B
Mon 09:20:31 AM -23.3260 -47.0740 138° Southeast 284 327 10,000 -818 Descending FlightAware ADS-B
Mon 09:21:03 AM -23.3560 -47.0460 139° Southeast 268 308 9,700 -563 Descending FlightAware ADS-B
Mon 09:21:35 AM -23.3860 -47.0180 139° Southeast 250 288 9,400 -500 Descending FlightAware ADS-B
Mon 09:22:03 AM -23.4100 -46.9960 140° Southeast 246 283 9,200 -450 Descending FlightAware ADS-B
Mon 09:22:15 AM -23.4210 -46.9860 140° Southeast 248 285 9,100 -300 Descending FlightAware ADS-B
Mon 09:22:43 AM -23.4450 -46.9630 139° Southeast 253 291 9,000 -150 Descending FlightAware ADS-B
Mon 09:22:55 AM -23.4560 -46.9530 140° Southeast 252 290 9,000  Level FlightAware ADS-B
Mon 09:23:23 AM -23.4810 -46.9300 140° Southeast 253 291 9,000  Level FlightAware ADS-B
Mon 09:23:51 AM -23.5060 -46.9060 139° Southeast 250 288 9,000  Level FlightAware ADS-B
Mon 09:24:19 AM -23.5290 -46.8830 137° Southeast 247 284 9,000  Level FlightAware ADS-B
Mon 09:24:49 AM -23.5560 -46.8580 140° Southeast 252 290 9,000  Level FlightAware ADS-B
Mon 09:25:18 AM -23.5750 -46.8390 137° Southeast 249 287 9,000  Level FlightAware ADS-B
Mon 09:25:25 AM -23.5860 -46.8280 137° Southeast 242 278 9,000  Level FlightAware ADS-B
Mon 09:25:57 AM -23.6120 -46.8030 139° Southeast 224 258 9,000  Level FlightAware ADS-B
Mon 09:26:27 AM -23.6350 -46.7800 138° Southeast 220 253 9,000  Level FlightAware ADS-B
Mon 09:26:55 AM -23.6560 -46.7590 138° Southeast 224 258 9,000  Level FlightAware ADS-B
Mon 09:27:23 AM -23.6780 -46.7370 138° Southeast 222 255 9,000 -310 Level FlightAware ADS-B
Mon 09:27:53 AM -23.7000 -46.7150 138° Southeast 219 252 8,700 -889 Descending FlightAware ADS-B
Mon 09:28:17 AM -23.7180 -46.6980 139° Southeast 220 253 8,200 -1,269 Descending FlightAware ADS-B
Mon 09:28:45 AM -23.7390 -46.6770 138° Southeast 222 255 7,600 -1,138 Descending FlightAware ADS-B
Mon 09:29:15 AM -23.7630 -46.6540 139° Southeast 222 255 7,100 -900 Descending FlightAware ADS-B
Mon 09:29:25 AM -23.7700 -46.6470 138° Southeast 220 253 7,000 -150 Descending FlightAware ADS-B
Mon 09:29:55 AM -23.7930 -46.6250 139° Southeast 222 255 7,000 -200 Level FlightAware ADS-B
Mon 09:30:25 AM -23.8170 -46.6020 139° Southeast 226 260 6,800 -643 Descending FlightAware ADS-B
Mon 09:30:51 AM -23.8390 -46.5830 142° Southeast 228 262 6,400 -764 Descending FlightAware ADS-B
Mon 09:31:20 AM -23.8540 -46.5690 140° Southeast 229 264 6,100 -906 Descending FlightAware ADS-B
Mon 09:31:44 AM -23.8720 -46.5500 136° Southeast 231 266 5,600 -857 Descending FlightAware ADS-B
Mon 09:32:16 AM -23.8600 -46.5140 70° East 203 234 5,300 -575 Descending FlightAware ADS-B
Mon 09:32:57 AM -23.8260 -46.5200 351° North 185 213 4,900 -353 Descending FlightAware ADS-B
Mon 09:33:24 AM -23.8060 -46.5330 329° Northwest 183 211 4,900  Level FlightAware ADS-B
Mon 09:33:53 AM -23.7860 -46.5470 327° Northwest 167 192 4,900  Level FlightAware ADS-B
Mon 09:34:20 AM -23.7700 -46.5570 330° Northwest 138 159 4,900  Level FlightAware ADS-B
Mon 09:34:48 AM -23.7560 -46.5670 327° Northwest 134 154 4,900  Level FlightAware ADS-B
Mon 09:35:16 AM -23.7410 -46.5780 326° Northwest 135 155 4,900 -154 Level FlightAware ADS-B
Mon 09:35:27 AM -23.7350 -46.5820 329° Northwest 135 155 4,800 -632 Descending FlightAware ADS-B
Mon 09:35:54 AM -23.7210 -46.5910 330° Northwest 135 155 4,500 -643 Descending FlightAware ADS-B
Mon 09:36:23 AM -23.7060 -46.6020 326° Northwest 133 153 4,200 -677 Descending FlightAware ADS-B
Mon 09:36:56 AM -23.6890 -46.6130 329° Northwest 135 155 3,800 -774 Descending FlightAware ADS-B
Mon 09:37:25 AM -23.6720 -46.6250 327° Northwest 130 150 3,400 -655 Descending FlightAware ADS-B
Mon 09:37:51 AM -23.6630 -46.6310 329° Northwest 131 151 3,200 -600 Descending FlightAware ADS-B
Mon 09:38:15 AM -23.6500 -46.6400 328° Northwest 129 148 2,900 -714 Descending FlightAware ADS-B
Mon 09:38:33 AM -23.6420 -46.6460 326° Northwest 132 152 2,700 -667 Descending FlightAware ADS-B
Mon 09:39:24 AM -23.6230 -46.6590 328° Northwest 130 150 -3,176 Descending FlightAware ADS-B
Mon 09:39:45 AM -23.6220 -46.6600 318° Northwest 130 150  Level FlightAware ADS-B
Mon 09:40:09 AM -23.6230 -46.6600 180° South 130 150  Level FlightAware ADS-B
Mon 09:40:36 AM -23.6240 -46.6600 180° South 130 150  Level FlightAware ADS-B
Mon 09:42:43 AM -23.6230 -46.6460 86° East 130 150  Level FlightAware ADS-B
Mon 09:44:19 AM -23.6240 -46.6600 266° West 130 150  Level FlightAware ADS-B
Mon 09:45:16 AM -23.6230 -46.6450 86° East 130 150  Level FlightAware ADS-B
Mon 09:47:00 AM -23.6267 -46.6554 249° West  Level Estimated

Login

Don't have an account? Register now (free) for customized features, flight alerts, and more!